createdAt,value
2018-09-17T00:00:50.005Z,86.38
2018-09-17T00:01:50.026Z,85.90
2018-09-17T00:02:50.046Z,86.19
2018-09-17T00:03:50.059Z,87.05
2018-09-17T00:04:50.078Z,87.87
2018-09-17T00:05:50.093Z,88.44
2018-09-17T00:06:50.112Z,89.11
2018-09-17T00:07:50.129Z,88.92
2018-09-17T00:08:50.147Z,88.06
2018-09-17T00:09:50.161Z,89.11
2018-09-17T00:10:50.193Z,88.97
2018-09-17T00:11:50.198Z,89.25
2018-09-17T00:12:50.215Z,89.45
2018-09-17T00:13:50.230Z,89.54
2018-09-17T00:14:50.249Z,89.30
2018-09-17T00:15:50.267Z,89.01
2018-09-17T00:16:50.287Z,89.39
2018-09-17T00:17:50.303Z,88.92
2018-09-17T00:18:50.323Z,88.34
2018-09-17T00:19:50.336Z,88.34
2018-09-17T00:20:50.356Z,88.15
2018-09-17T00:21:50.385Z,88.15
2018-09-17T00:22:50.387Z,88.54
2018-09-17T00:23:50.414Z,87.96
2018-09-17T00:24:50.437Z,88.34
2018-09-17T00:25:50.441Z,87.96
2018-09-17T00:26:50.462Z,88.30
2018-09-17T00:27:50.481Z,90.02
2018-09-17T00:28:50.500Z,91.78
2018-09-17T00:29:50.511Z,91.55
2018-09-17T00:30:50.534Z,90.97
2018-09-17T00:31:50.549Z,90.31
2018-09-17T00:32:50.563Z,90.31
2018-09-17T00:33:50.584Z,90.93
2018-09-17T00:34:50.598Z,92.46
2018-09-17T00:35:50.619Z,92.83
2018-09-17T00:36:50.642Z,93.12
2018-09-17T00:37:50.650Z,94.03
2018-09-17T00:38:50.667Z,93.74
2018-09-17T00:39:50.695Z,93.60
2018-09-17T00:40:50.710Z,92.55
2018-09-17T00:41:50.726Z,92.17
2018-09-17T00:42:50.741Z,92.36
2018-09-17T00:43:50.756Z,91.78
2018-09-17T00:44:50.775Z,92.07
2018-09-17T00:45:50.798Z,92.36
2018-09-17T00:46:50.812Z,91.60
2018-09-17T00:47:50.827Z,91.78
2018-09-17T00:48:50.841Z,91.21
2018-09-17T00:49:50.874Z,91.69
2018-09-17T00:50:50.879Z,91.21
2018-09-17T00:51:50.899Z,90.36
2018-09-17T00:52:50.920Z,90.45
2018-09-17T00:53:50.928Z,89.97
2018-09-17T00:54:50.953Z,90.36
2018-09-17T00:55:50.967Z,91.64
2018-09-17T00:56:50.981Z,92.88
2018-09-17T00:57:51.084Z,94.70
2018-09-17T00:58:51.018Z,94.12
2018-09-17T00:59:51.041Z,93.02
2018-09-17T01:00:51.049Z,91.98
2018-09-17T01:01:51.067Z,91.78
2018-09-17T01:02:51.086Z,91.21
2018-09-17T01:03:51.102Z,91.12
2018-09-17T01:04:51.125Z,90.55
2018-09-17T01:05:51.140Z,90.64
2018-09-17T01:06:51.157Z,90.36
2018-09-17T01:07:51.175Z,90.26
2018-09-17T01:08:51.190Z,89.97
2018-09-17T01:09:51.208Z,89.31
2018-09-17T01:10:51.228Z,89.31
2018-09-17T01:11:51.237Z,89.69
2018-09-17T01:12:51.260Z,89.97
2018-09-17T01:13:51.273Z,91.17
2018-09-17T01:14:51.295Z,90.98
2018-09-17T01:15:51.307Z,90.83
2018-09-17T01:16:51.332Z,91.17
2018-09-17T01:17:51.347Z,91.64
2018-09-17T01:18:51.359Z,93.08
2018-09-17T01:19:51.391Z,93.17
2018-09-17T01:20:51.397Z,92.88
2018-09-17T01:21:51.413Z,93.08
2018-09-17T01:22:51.429Z,92.69
2018-09-17T01:23:51.448Z,92.32
2018-09-17T01:24:51.471Z,92.32
2018-09-17T01:25:51.483Z,92.50
2018-09-17T01:26:51.500Z,91.93
2018-09-17T01:27:51.543Z,93.27
2018-09-17T01:28:51.534Z,93.46
2018-09-17T01:29:51.549Z,93.17
2018-09-17T01:30:51.568Z,93.74
2018-09-17T01:31:51.586Z,94.37
2018-09-17T01:32:51.599Z,94.37
2018-09-17T01:33:51.622Z,94.93
2018-09-17T01:34:51.636Z,94.65
2018-09-17T01:35:51.651Z,94.74
2018-09-17T01:36:51.670Z,95.03
2018-09-17T01:37:51.684Z,94.93
2018-09-17T01:38:51.708Z,94.93
2018-09-17T01:39:51.723Z,95.22
2018-09-17T01:40:51.738Z,95.79
2018-09-17T01:41:51.759Z,95.89
2018-09-17T01:42:51.775Z,95.32
2018-09-17T01:43:51.786Z,95.03
2018-09-17T01:44:51.806Z,95.41
2018-09-17T01:45:51.819Z,95.32
2018-09-17T01:46:51.842Z,94.84
2018-09-17T01:47:51.859Z,95.32
2018-09-17T01:48:51.871Z,94.65
2018-09-17T01:49:51.891Z,94.93
2018-09-17T01:50:51.912Z,95.12
2018-09-17T01:51:51.926Z,94.93
2018-09-17T01:52:51.943Z,95.12
2018-09-17T01:53:51.960Z,95.22
2018-09-17T01:54:51.974Z,95.03
2018-09-17T01:55:51.990Z,94.37
2018-09-17T01:56:52.008Z,93.79
2018-09-17T01:57:52.028Z,93.41
2018-09-17T01:58:52.045Z,92.46
2018-09-17T01:59:52.057Z,92.65
2018-09-17T02:00:52.075Z,92.46
2018-09-17T02:01:52.093Z,92.55
2018-09-17T02:02:52.107Z,92.55
2018-09-17T02:03:52.131Z,93.32
2018-09-17T02:04:52.147Z,93.60
2018-09-17T02:05:52.181Z,94.17
2018-09-17T02:06:52.178Z,95.22
2018-09-17T02:07:52.198Z,95.65
2018-09-17T02:08:52.272Z,95.94
2018-09-17T02:09:52.235Z,96.41
2018-09-17T02:10:52.255Z,96.70
2018-09-17T02:11:52.269Z,97.08
2018-09-17T02:12:52.280Z,96.98
2018-09-17T02:13:52.298Z,96.80
2018-09-17T02:14:52.325Z,96.60
2018-09-17T02:15:52.342Z,95.65
2018-09-17T02:16:52.346Z,96.32
2018-09-17T02:17:52.364Z,96.80
2018-09-17T02:18:52.383Z,97.46
2018-09-17T02:19:52.398Z,97.22
2018-09-17T02:20:52.423Z,97.17
2018-09-17T02:21:52.431Z,97.36
2018-09-17T02:22:52.455Z,98.22
2018-09-17T02:23:52.463Z,98.18
2018-09-17T02:24:52.485Z,98.03
2018-09-17T02:25:52.502Z,97.75
2018-09-17T02:26:52.528Z,96.27
2018-09-17T02:27:52.536Z,94.46
2018-09-17T02:28:52.549Z,93.70
2018-09-17T02:29:52.580Z,92.46
2018-09-17T02:30:52.583Z,92.36
2018-09-17T02:31:52.599Z,91.79
2018-09-17T02:32:52.618Z,91.41
2018-09-17T02:33:52.633Z,92.65
2018-09-17T02:34:52.669Z,93.03
2018-09-17T02:35:52.678Z,93.74
2018-09-17T02:36:52.685Z,93.55
2018-09-17T02:37:52.700Z,94.74
2018-09-17T02:38:52.721Z,94.60
2018-09-17T02:39:52.741Z,94.60
2018-09-17T02:40:52.748Z,94.70
2018-09-17T02:41:52.773Z,94.32
2018-09-17T02:42:52.785Z,94.13
2018-09-17T02:43:52.802Z,93.79
2018-09-17T02:44:52.825Z,93.32
2018-09-17T02:45:52.838Z,92.08
2018-09-17T02:46:52.851Z,92.17
2018-09-17T02:47:52.869Z,91.88
2018-09-17T02:48:52.888Z,92.46
2018-09-17T02:49:52.903Z,92.17
2018-09-17T02:50:52.918Z,92.27
2018-09-17T02:51:52.933Z,92.46
2018-09-17T02:52:52.951Z,91.60
2018-09-17T02:53:52.971Z,91.03
2018-09-17T02:54:52.989Z,90.69
2018-09-17T02:55:53.003Z,91.03
2018-09-17T02:56:53.019Z,90.93
2018-09-17T02:57:53.042Z,91.79
2018-09-17T02:58:53.058Z,92.65
2018-09-17T02:59:53.079Z,92.93
2018-09-17T03:00:53.090Z,93.60
2018-09-17T03:01:53.102Z,93.60
2018-09-17T03:02:53.120Z,93.60
2018-09-17T03:03:53.144Z,93.98
2018-09-17T03:04:53.160Z,93.41
2018-09-17T03:05:53.172Z,93.12
2018-09-17T03:06:53.186Z,93.79
2018-09-17T03:07:53.207Z,94.79
2018-09-17T03:08:53.227Z,95.27
2018-09-17T03:09:53.253Z,96.70
2018-09-17T03:10:53.252Z,96.84
2018-09-17T03:11:53.276Z,96.80
2018-09-17T03:12:53.292Z,97.22
2018-09-17T03:13:53.314Z,98.18
2018-09-17T03:14:53.329Z,98.18
2018-09-17T03:15:53.334Z,97.79
2018-09-17T03:16:53.357Z,97.51
2018-09-17T03:17:53.368Z,96.32
2018-09-17T03:18:53.387Z,95.08
2018-09-17T03:19:53.403Z,95.27
2018-09-17T03:20:53.423Z,94.22
2018-09-17T03:21:53.448Z,94.32
2018-09-17T03:22:53.467Z,93.65
2018-09-17T03:23:53.469Z,92.79
2018-09-17T03:24:53.487Z,93.17
2018-09-17T03:25:53.504Z,92.55
2018-09-17T03:26:53.525Z,93.03
2018-09-17T03:27:53.540Z,92.74
2018-09-17T03:28:53.552Z,92.60
2018-09-17T03:29:53.573Z,92.69
2018-09-17T03:30:53.583Z,93.93
2018-09-17T03:31:53.606Z,94.41
2018-09-17T03:32:53.623Z,94.70
2018-09-17T03:33:53.634Z,94.32
2018-09-17T03:34:53.651Z,94.70
2018-09-17T03:35:53.672Z,94.41
2018-09-17T03:36:53.690Z,95.41
2018-09-17T03:37:53.705Z,97.70
2018-09-17T03:38:53.720Z,98.84
2018-09-17T03:39:53.735Z,99.32
2018-09-17T03:40:53.751Z,99.22
2018-09-17T03:41:53.767Z,97.22
2018-09-17T03:42:53.785Z,96.75
2018-09-17T03:43:53.806Z,97.51
2018-09-17T03:44:53.829Z,97.99
2018-09-17T03:45:53.835Z,98.65
2018-09-17T03:46:53.860Z,98.84
2018-09-17T03:47:53.866Z,98.65
2018-09-17T03:48:53.886Z,99.13
2018-09-17T03:49:53.899Z,98.74
2018-09-17T03:50:53.926Z,98.27
2018-09-17T03:51:53.939Z,97.89
2018-09-17T03:52:53.953Z,97.99
2018-09-17T03:53:53.969Z,98.08
2018-09-17T03:54:53.989Z,97.89
2018-09-17T03:55:54.002Z,97.99
2018-09-17T03:56:54.026Z,97.79
2018-09-17T03:57:54.034Z,96.65
2018-09-17T03:58:54.053Z,95.22
2018-09-17T03:59:54.066Z,95.17
2018-09-17T04:00:54.084Z,94.22
2018-09-17T04:01:54.100Z,94.41
2018-09-17T04:02:54.129Z,94.60
2018-09-17T04:03:54.135Z,94.60
2018-09-17T04:04:54.150Z,93.74
2018-09-17T04:05:54.171Z,93.46
2018-09-17T04:06:54.187Z,93.55
2018-09-17T04:07:54.205Z,93.08
2018-09-17T04:08:54.212Z,93.46
2018-09-17T04:09:54.230Z,92.98
2018-09-17T04:10:54.256Z,92.79
2018-09-17T04:11:54.268Z,92.89
2018-09-17T04:12:54.288Z,92.50
2018-09-17T04:13:54.303Z,93.55
2018-09-17T04:14:54.316Z,94.13
2018-09-17T04:15:54.337Z,94.13
2018-09-17T04:16:54.354Z,93.74
2018-09-17T04:17:54.366Z,94.41
2018-09-17T04:18:54.382Z,95.08
2018-09-17T04:19:54.396Z,94.89
2018-09-17T04:20:54.412Z,94.22
2018-09-17T04:21:54.430Z,92.98
2018-09-17T04:22:54.445Z,92.89
2018-09-17T04:23:54.465Z,93.65
2018-09-17T04:24:54.478Z,93.08
2018-09-17T04:25:54.496Z,93.84
2018-09-17T04:26:54.522Z,93.37
2018-09-17T04:27:54.531Z,93.65
2018-09-17T04:28:54.549Z,94.41
2018-09-17T04:29:54.564Z,94.93
2018-09-17T04:30:54.580Z,95.27
2018-09-17T04:31:54.612Z,95.46
2018-09-17T04:32:54.629Z,94.98
2018-09-17T04:33:54.641Z,94.93
2018-09-17T04:34:54.649Z,95.51
2018-09-17T04:35:54.662Z,95.22
2018-09-17T04:36:54.678Z,95.79
2018-09-17T04:37:54.694Z,97.13
2018-09-17T04:38:54.715Z,96.46
2018-09-17T04:39:54.796Z,97.27
2018-09-17T04:40:54.761Z,98.13
2018-09-17T04:41:54.765Z,97.74
2018-09-17T04:42:54.792Z,98.27
2018-09-17T04:43:54.834Z,98.13
2018-09-17T04:44:54.841Z,98.32
2018-09-17T04:45:54.860Z,98.03
2018-09-17T04:46:54.859Z,98.03
2018-09-17T04:47:54.944Z,98.08
2018-09-17T04:48:54.878Z,97.31
2018-09-17T04:49:54.902Z,96.27
2018-09-17T04:50:54.913Z,95.79
2018-09-17T04:51:54.935Z,95.12
2018-09-17T04:52:54.957Z,95.12
2018-09-17T04:53:54.967Z,94.46
2018-09-17T04:54:55.001Z,93.41
2018-09-17T04:55:54.997Z,93.74
2018-09-17T04:56:55.011Z,93.93
2018-09-17T04:57:55.044Z,93.37
2018-09-17T04:58:55.079Z,93.65
2018-09-17T04:59:55.072Z,93.70
2018-09-17T05:00:55.128Z,94.65
2018-09-17T05:01:55.097Z,94.65
2018-09-17T05:02:55.134Z,95.51
2018-09-17T05:03:55.147Z,95.22
2018-09-17T05:04:55.143Z,95.22
2018-09-17T05:05:55.158Z,96.46
2018-09-17T05:06:55.173Z,96.08
2018-09-17T05:07:55.192Z,95.70
2018-09-17T05:08:55.214Z,95.22
2018-09-17T05:09:55.229Z,94.93
2018-09-17T05:10:55.245Z,95.12
2018-09-17T05:11:55.257Z,95.12
2018-09-17T05:12:55.337Z,95.51
2018-09-17T05:13:55.293Z,95.60
2018-09-17T05:14:55.307Z,96.27
2018-09-17T05:15:55.323Z,96.36
2018-09-17T05:16:55.339Z,96.08
2018-09-17T05:17:55.360Z,95.79
2018-09-17T05:18:55.373Z,94.79
2018-09-17T05:19:55.395Z,93.65
2018-09-17T05:20:55.409Z,92.50
2018-09-17T05:21:55.494Z,92.41
2018-09-17T05:22:55.441Z,92.79
2018-09-17T05:23:55.459Z,92.41
2018-09-17T05:24:55.481Z,93.17
2018-09-17T05:25:55.508Z,93.93
2018-09-17T05:26:55.590Z,93.74
2018-09-17T05:27:55.533Z,93.37
2018-09-17T05:28:55.548Z,92.74
2018-09-17T05:29:55.556Z,91.98
2018-09-17T05:30:55.587Z,91.50
2018-09-17T05:31:55.594Z,90.36
2018-09-17T05:32:55.607Z,89.54
2018-09-17T05:33:55.626Z,89.83
2018-09-17T05:34:55.700Z,90.31
2018-09-17T05:35:55.660Z,89.54
2018-09-17T05:36:55.677Z,90.41
2018-09-17T05:37:55.691Z,90.12
2018-09-17T05:38:55.714Z,89.54
2018-09-17T05:39:55.726Z,89.97
2018-09-17T05:40:55.748Z,88.97
2018-09-17T05:41:55.763Z,87.01
2018-09-17T05:42:55.780Z,84.85
2018-09-17T05:43:55.800Z,82.79
2018-09-17T05:44:55.816Z,80.54
2018-09-17T05:45:55.836Z,79.39
2018-09-17T05:46:55.851Z,78.05
2018-09-17T05:47:55.874Z,78.14
2018-09-17T05:48:55.896Z,77.67
2018-09-17T05:49:55.912Z,77.80
2018-09-17T05:50:55.930Z,76.08
2018-09-17T05:51:55.960Z,77.06
2018-09-17T05:52:55.965Z,78.30
2018-09-17T05:53:56.020Z,79.93
2018-09-17T05:54:56.003Z,80.27
2018-09-17T05:55:56.031Z,80.98
2018-09-17T05:56:56.050Z,79.83
2018-09-17T05:57:56.063Z,80.02
2018-09-17T05:58:56.083Z,79.93
2018-09-17T05:59:56.099Z,80.30
2018-09-17T06:00:56.126Z,80.30
2018-09-17T06:01:56.140Z,78.97
2018-09-17T06:02:56.161Z,79.06
2018-09-17T06:03:56.184Z,78.49
2018-09-17T06:04:56.204Z,78.97
2018-09-17T06:05:56.240Z,79.64
2018-09-17T06:06:56.279Z,80.17
2018-09-17T06:07:56.271Z,80.27
2018-09-17T06:08:56.287Z,81.32
2018-09-17T06:09:56.294Z,81.60
2018-09-17T06:10:56.329Z,81.60
2018-09-17T06:11:56.364Z,81.74
2018-09-17T06:12:56.359Z,80.98
2018-09-17T06:13:56.383Z,80.88
2018-09-17T06:14:56.398Z,79.39
2018-09-17T06:15:56.422Z,79.29
2018-09-17T06:16:56.453Z,79.49
2018-09-17T06:17:56.456Z,79.33
2018-09-17T06:18:56.474Z,77.95
2018-09-17T06:19:56.501Z,78.19
2018-09-17T06:20:56.534Z,77.46
2018-09-17T06:21:56.529Z,75.10
2018-09-17T06:22:56.549Z,75.10
2018-09-17T06:23:56.571Z,75.26
2018-09-17T06:24:56.603Z,74.91
2018-09-17T06:25:56.620Z,75.64
2018-09-17T06:26:56.636Z,75.48
2018-09-17T06:27:56.676Z,74.85
2018-09-17T06:28:56.677Z,72.84
2018-09-17T06:29:56.690Z,72.39
2018-09-17T06:30:56.716Z,71.76
2018-09-17T06:31:56.745Z,70.74
2018-09-17T06:32:56.757Z,69.43
2018-09-17T06:33:56.788Z,67.74
2018-09-17T06:34:56.797Z,66.87
2018-09-17T06:35:56.826Z,66.61
2018-09-17T06:37:56.854Z,64.47
2018-09-17T06:38:56.879Z,62.13
2018-09-17T06:39:56.911Z,63.09
2018-09-17T06:40:56.920Z,63.70
2018-09-17T06:41:56.981Z,62.57
2018-09-17T06:42:56.980Z,62.38
2018-09-17T06:43:56.982Z,61.45
2018-09-17T06:44:57.079Z,60.77
2018-09-17T06:45:57.029Z,59.72
2018-09-17T06:46:57.050Z,60.58
2018-09-17T06:47:57.090Z,59.78
2018-09-17T06:48:57.097Z,58.07
2018-09-17T06:49:57.121Z,56.84
2018-09-17T06:50:57.141Z,56.10
2018-09-17T06:51:57.167Z,55.33
2018-09-17T06:52:57.214Z,55.20
2018-09-17T06:53:57.207Z,56.40
2018-09-17T06:54:57.230Z,57.82
2018-09-17T06:55:57.257Z,59.36
2018-09-17T06:56:57.279Z,59.55
2018-09-17T06:57:57.297Z,59.45
2018-09-17T06:58:57.321Z,60.94
2018-09-17T06:59:57.352Z,62.32
2018-09-17T07:00:57.372Z,61.10
2018-09-17T07:01:57.413Z,59.75
2018-09-17T07:02:57.417Z,61.83
2018-09-17T07:03:57.442Z,62.06
2018-09-17T07:04:57.464Z,60.00
2018-09-17T07:05:57.480Z,58.55
2018-09-17T07:06:57.506Z,57.81
2018-09-17T07:07:57.529Z,56.56
2018-09-17T07:08:57.550Z,56.84
2018-09-17T07:09:57.573Z,59.14
2018-09-17T07:10:57.604Z,63.38
2018-09-17T07:11:57.624Z,65.30
2018-09-17T07:12:57.640Z,67.13
2018-09-17T07:13:57.663Z,65.59
2018-09-17T07:14:57.684Z,62.28
2018-09-17T07:15:57.704Z,60.35
2018-09-17T07:16:57.737Z,61.77
2018-09-17T07:17:57.801Z,62.25
2018-09-17T07:18:57.789Z,62.35
2018-09-17T07:19:57.795Z,61.44
2018-09-17T07:20:57.819Z,60.64
2018-09-17T07:21:57.839Z,61.10
2018-09-17T07:22:57.864Z,61.41
2018-09-17T07:23:57.886Z,61.77
2018-09-17T07:24:57.911Z,62.80
2018-09-17T07:25:57.940Z,63.02
2018-09-17T07:26:57.959Z,62.93
2018-09-17T07:27:57.979Z,62.57
2018-09-17T07:28:57.999Z,60.64
2018-09-17T07:29:58.028Z,60.10
2018-09-17T07:30:58.061Z,59.61
2018-09-17T07:31:58.076Z,58.68
2018-09-17T07:32:58.092Z,58.58
2018-09-17T07:33:58.115Z,59.45
2018-09-17T07:34:58.141Z,59.97
2018-09-17T07:35:58.170Z,61.29
2018-09-17T07:36:58.185Z,63.38
2018-09-17T07:37:58.208Z,64.40
2018-09-17T07:38:58.229Z,65.37
2018-09-17T07:39:58.253Z,65.08
2018-09-17T07:40:58.276Z,64.73
2018-09-17T07:41:58.305Z,62.96
2018-09-17T07:42:59.069Z,61.13
2018-09-17T07:43:58.344Z,61.80
2018-09-17T07:44:58.377Z,61.03
2018-09-17T07:45:58.397Z,60.64
2018-09-17T07:46:58.421Z,56.99
2018-09-17T07:47:58.439Z,56.51
2018-09-17T07:48:58.463Z,56.21
2018-09-17T07:49:58.491Z,53.07
2018-09-17T07:50:58.511Z,51.90
2018-09-17T07:51:58.531Z,50.77
2018-09-17T07:52:58.561Z,51.16
2018-09-17T07:53:58.577Z,49.77
2018-09-17T07:54:58.599Z,48.00
2018-09-17T07:55:58.636Z,49.77
2018-09-17T07:56:58.646Z,50.94
2018-09-17T07:57:58.674Z,52.51
2018-09-17T07:58:58.707Z,54.32
2018-09-17T07:59:58.723Z,55.35
2018-09-17T08:00:58.743Z,55.67
2018-09-17T08:01:58.772Z,54.01
2018-09-17T08:02:58.792Z,51.18
2018-09-17T08:03:58.834Z,48.73
2018-09-17T08:04:58.849Z,48.13
2018-09-17T08:05:58.865Z,47.47
2018-09-17T08:06:58.890Z,46.55
2018-09-17T08:07:58.917Z,44.98
2018-09-17T08:08:58.939Z,44.14
2018-09-17T08:09:58.967Z,47.08
2018-09-17T08:10:58.995Z,46.01
2018-09-17T08:11:59.018Z,43.44
2018-09-17T08:12:59.042Z,42.65
2018-09-17T08:13:59.065Z,43.43
2018-09-17T08:14:59.096Z,42.25
2018-09-17T08:15:59.119Z,43.85
2018-09-17T08:16:59.157Z,44.84
2018-09-17T08:17:59.165Z,42.08
2018-09-17T08:18:59.197Z,42.47
2018-09-17T08:19:59.223Z,42.08
2018-09-17T08:20:59.249Z,41.81
2018-09-17T08:21:59.266Z,40.68
2018-09-17T08:22:59.296Z,39.59
2018-09-17T08:23:59.315Z,39.76
2018-09-17T08:24:59.349Z,41.26
2018-09-17T08:25:59.361Z,43.22
2018-09-17T08:26:59.388Z,46.51
2018-09-17T08:27:59.418Z,46.84
2018-09-17T08:28:59.444Z,47.47
2018-09-17T08:29:59.468Z,48.03
2018-09-17T08:30:59.487Z,48.39
2018-09-17T08:31:59.510Z,47.52
2018-09-17T08:32:59.532Z,47.45
2018-09-17T08:33:59.554Z,48.11
2018-09-17T08:34:59.577Z,48.37
2018-09-17T08:35:59.610Z,49.95
2018-09-17T08:36:59.625Z,50.28
2018-09-17T08:37:59.646Z,49.97
2018-09-17T08:38:59.674Z,50.23
2018-09-17T08:39:59.693Z,50.89
2018-09-17T08:40:59.719Z,51.75
2018-09-17T08:41:59.749Z,52.65
2018-09-17T08:42:59.764Z,52.84
2018-09-17T08:43:59.788Z,52.55
2018-09-17T08:44:59.803Z,52.43
2018-09-17T08:45:59.826Z,51.75
2018-09-17T08:46:59.850Z,51.97
2018-09-17T08:47:59.874Z,52.17
2018-09-17T08:48:59.895Z,51.06
2018-09-17T08:49:59.918Z,50.31
2018-09-17T08:50:59.943Z,49.07
2018-09-17T08:51:59.961Z,49.17
2018-09-17T08:52:59.985Z,48.13
2018-09-17T08:54:00.004Z,48.01
2018-09-17T08:55:00.038Z,47.14
2018-09-17T08:56:00.064Z,47.81
2018-09-17T08:57:00.075Z,47.36
2018-09-17T08:58:00.096Z,47.74
2018-09-17T08:59:00.115Z,48.20
2018-09-17T09:00:00.145Z,47.91
2018-09-17T09:01:00.167Z,48.20
2018-09-17T09:02:00.187Z,48.03
2018-09-17T09:03:00.210Z,48.22
2018-09-17T09:04:00.275Z,47.91
2018-09-17T09:05:00.312Z,48.49
2018-09-17T09:06:00.290Z,48.11
2018-09-17T09:07:00.302Z,47.38
2018-09-17T09:08:00.318Z,46.89
2018-09-17T09:09:00.344Z,47.21
2018-09-17T09:10:00.363Z,48.47
2018-09-17T09:11:00.400Z,49.54
2018-09-17T09:12:00.414Z,49.54
2018-09-17T09:13:00.429Z,49.46
2018-09-17T09:14:00.452Z,49.15
2018-09-17T09:15:00.474Z,49.32
2018-09-17T09:16:00.504Z,50.26
2018-09-17T09:17:00.516Z,50.09
2018-09-17T09:18:00.540Z,49.73
2018-09-17T09:19:00.565Z,48.49
2018-09-17T09:20:00.583Z,48.76
2018-09-17T09:21:00.613Z,49.07
2018-09-17T09:22:00.628Z,48.57
2018-09-17T09:23:00.651Z,48.95
2018-09-17T09:24:00.675Z,48.30
2018-09-17T09:25:00.692Z,48.03
2018-09-17T09:26:00.716Z,47.64
2018-09-17T09:27:00.790Z,48.30
2018-09-17T09:28:00.759Z,48.22
2018-09-17T09:29:00.780Z,47.94
2018-09-17T09:30:00.802Z,48.06
2018-09-17T09:31:00.830Z,47.26
2018-09-17T09:32:00.849Z,48.42
2018-09-17T09:33:00.870Z,47.09
2018-09-17T09:34:00.905Z,46.67
2018-09-17T09:35:00.930Z,47.16
2018-09-17T09:36:00.943Z,47.16
2018-09-17T09:37:00.961Z,47.36
2018-09-17T09:38:01.018Z,46.39
2018-09-17T09:39:01.009Z,45.83
2018-09-17T09:40:01.033Z,45.81
2018-09-17T09:41:01.051Z,46.48
2018-09-17T09:42:01.086Z,47.16
2018-09-17T09:43:01.098Z,47.45
2018-09-17T09:44:01.124Z,47.72
2018-09-17T09:45:01.141Z,47.36
2018-09-17T09:46:01.171Z,46.77
2018-09-17T09:47:01.183Z,47.16
2018-09-17T09:48:01.214Z,46.97
2018-09-17T09:49:01.234Z,47.16
2018-09-17T09:50:01.251Z,47.11
2018-09-17T09:51:01.271Z,45.85
2018-09-17T09:52:01.296Z,45.58
2018-09-17T09:53:01.321Z,45.10
2018-09-17T09:54:01.357Z,45.00
2018-09-17T09:55:01.392Z,45.65
2018-09-17T09:56:01.383Z,45.65
2018-09-17T09:57:01.406Z,46.41
2018-09-17T09:58:01.456Z,46.99
2018-09-17T09:59:01.456Z,48.11
2018-09-17T10:00:01.480Z,47.45
2018-09-17T10:01:01.515Z,46.89
2018-09-17T10:02:01.520Z,46.60
2018-09-17T10:03:01.543Z,47.06
2018-09-17T10:04:01.562Z,47.09
2018-09-17T10:05:01.585Z,45.85
2018-09-17T10:06:01.623Z,46.22
2018-09-17T10:07:01.633Z,46.41
2018-09-17T10:08:01.665Z,46.60
2018-09-17T10:09:01.682Z,46.04
2018-09-17T10:10:01.703Z,45.10
2018-09-17T10:11:01.728Z,44.90
2018-09-17T10:12:01.749Z,44.71
2018-09-17T10:13:01.772Z,45.47
2018-09-17T10:14:01.792Z,46.04
2018-09-17T10:15:01.813Z,46.14
2018-09-17T10:16:01.838Z,45.48
2018-09-17T10:17:01.863Z,45.20
2018-09-17T10:18:01.891Z,45.29
2018-09-17T10:19:01.906Z,45.12
2018-09-17T10:20:01.928Z,44.17
2018-09-17T10:21:01.946Z,44.64
2018-09-17T10:22:01.973Z,44.92
2018-09-17T10:23:01.997Z,45.02
2018-09-17T10:24:02.024Z,45.04
2018-09-17T10:25:02.041Z,44.83
2018-09-17T10:26:02.063Z,44.71
2018-09-17T10:27:02.087Z,45.20
2018-09-17T10:28:02.115Z,45.21
2018-09-17T10:29:02.127Z,45.68
2018-09-17T10:30:02.244Z,45.31
2018-09-17T10:31:02.232Z,45.04
2018-09-17T10:32:02.203Z,44.73
2018-09-17T10:33:02.225Z,44.73
2018-09-17T10:34:02.241Z,45.31
2018-09-17T10:35:02.264Z,45.21
2018-09-17T10:36:02.290Z,45.31
2018-09-17T10:37:02.313Z,44.73
2018-09-17T10:38:02.340Z,44.27
2018-09-17T10:39:02.366Z,43.20
2018-09-17T10:40:02.381Z,43.40
2018-09-17T10:41:02.405Z,43.76
2018-09-17T10:42:02.423Z,43.98
2018-09-17T10:43:02.457Z,44.56
2018-09-17T10:44:02.468Z,43.51
2018-09-17T10:45:02.494Z,43.24
2018-09-17T10:46:02.516Z,43.78
2018-09-17T10:47:02.582Z,44.85
2018-09-17T10:48:02.571Z,44.75
2018-09-17T10:49:02.586Z,43.88
2018-09-17T10:50:02.613Z,44.27
2018-09-17T10:51:02.636Z,43.37
2018-09-17T10:52:02.666Z,43.32
2018-09-17T10:53:02.683Z,43.01
2018-09-17T10:54:02.705Z,43.32
2018-09-17T10:55:02.726Z,43.22
2018-09-17T10:56:02.747Z,42.91
2018-09-17T10:57:02.768Z,43.20
2018-09-17T10:58:02.794Z,43.49
2018-09-17T10:59:02.818Z,44.46
2018-09-17T11:00:02.847Z,43.78
2018-09-17T11:01:02.864Z,43.71
2018-09-17T11:02:02.891Z,43.78
2018-09-17T11:03:02.911Z,43.68
2018-09-17T11:04:02.939Z,44.07
2018-09-17T11:05:02.969Z,44.29
2018-09-17T11:06:02.984Z,43.44
2018-09-17T11:07:03.013Z,42.46
2018-09-17T11:08:03.023Z,41.90
2018-09-17T11:09:03.047Z,42.66
2018-09-17T11:10:03.081Z,42.36
2018-09-17T11:11:03.094Z,41.98
2018-09-17T11:12:03.125Z,41.80
2018-09-17T11:13:03.144Z,42.39
2018-09-17T11:14:03.164Z,41.98
2018-09-17T11:15:03.187Z,42.49
2018-09-17T11:16:03.222Z,41.61
2018-09-17T11:17:03.237Z,41.36
2018-09-17T11:18:03.258Z,40.47
2018-09-17T11:19:03.283Z,40.85
2018-09-17T11:20:03.307Z,40.68
2018-09-17T11:21:03.334Z,40.31
2018-09-17T11:22:03.355Z,40.29
2018-09-17T11:23:03.395Z,41.32
2018-09-17T11:24:03.399Z,40.95
2018-09-17T11:25:03.461Z,40.88
2018-09-17T11:26:03.446Z,40.58
2018-09-17T11:27:03.470Z,40.91
2018-09-17T11:28:03.495Z,41.51
2018-09-17T11:29:03.518Z,41.14
2018-09-17T11:30:03.543Z,40.47
2018-09-17T11:31:03.562Z,39.61
2018-09-17T11:32:03.599Z,39.69
2018-09-17T11:33:03.617Z,40.17
2018-09-17T11:34:03.638Z,40.19
2018-09-17T11:35:03.691Z,39.80
2018-09-17T11:36:03.691Z,39.61
2018-09-17T11:37:03.707Z,39.80
2018-09-17T11:38:03.727Z,40.09
2018-09-17T11:39:03.760Z,39.90
2018-09-17T11:40:03.777Z,39.98
2018-09-17T11:41:03.815Z,41.13
2018-09-17T11:42:03.826Z,41.22
2018-09-17T11:43:03.853Z,41.39
2018-09-17T11:44:03.873Z,41.67
2018-09-17T11:45:03.894Z,42.33
2018-09-17T11:46:03.917Z,42.23
2018-09-17T11:47:03.956Z,42.03
2018-09-17T11:48:03.979Z,42.71
2018-09-17T11:49:03.996Z,42.44
2018-09-17T11:50:04.011Z,41.47
2018-09-17T11:51:04.038Z,42.05
2018-09-17T11:52:04.058Z,42.18
2018-09-17T11:53:04.086Z,41.78
2018-09-17T11:54:04.159Z,41.51
2018-09-17T11:55:04.131Z,41.61
2018-09-17T11:56:04.154Z,41.80
2018-09-17T11:57:04.188Z,41.26
2018-09-17T11:58:04.196Z,40.50
2018-09-17T11:59:04.224Z,39.62
2018-09-17T12:00:04.251Z,39.53
2018-09-17T12:01:04.271Z,39.72
2018-09-17T12:02:04.377Z,39.62
2018-09-17T12:03:04.313Z,38.54
2018-09-17T12:04:04.344Z,38.15
2018-09-17T12:05:04.362Z,38.75
2018-09-17T12:06:04.441Z,38.36
2018-09-17T12:07:04.410Z,37.79
2018-09-17T12:08:04.436Z,37.48
2018-09-17T12:09:04.460Z,38.60
2018-09-17T12:10:04.484Z,39.28
2018-09-17T12:11:04.524Z,39.00
2018-09-17T12:12:04.530Z,39.10
2018-09-17T12:13:04.554Z,38.83
2018-09-17T12:14:04.582Z,38.73
2018-09-17T12:15:04.603Z,38.85
2018-09-17T12:16:04.622Z,38.46
2018-09-17T12:17:04.645Z,37.76
2018-09-17T12:18:04.671Z,38.24
2018-09-17T12:19:04.694Z,38.56
2018-09-17T12:20:04.724Z,37.70
2018-09-17T12:21:04.739Z,37.12
2018-09-17T12:22:04.766Z,37.10
2018-09-17T12:23:04.793Z,37.02
2018-09-17T12:24:04.874Z,36.92
2018-09-17T12:25:04.835Z,37.41
2018-09-17T12:26:04.862Z,36.82
2018-09-17T12:27:04.886Z,36.92
2018-09-17T12:28:04.910Z,37.10
2018-09-17T12:29:04.935Z,37.77
2018-09-17T12:30:04.960Z,37.41
2018-09-17T12:31:04.976Z,37.50
2018-09-17T12:32:05.002Z,37.33
2018-09-17T12:33:05.028Z,37.12
2018-09-17T12:34:05.059Z,36.94
2018-09-17T12:35:05.073Z,36.63
2018-09-17T12:36:05.097Z,37.21
2018-09-17T12:37:05.121Z,36.82
2018-09-17T12:38:05.148Z,36.82
2018-09-17T12:39:05.179Z,36.92
2018-09-17T12:40:05.203Z,36.57
2018-09-17T12:41:05.217Z,35.96
2018-09-17T12:42:05.239Z,36.84
2018-09-17T12:43:05.270Z,36.82
2018-09-17T12:44:05.289Z,37.56
2018-09-17T12:45:05.316Z,38.73
2018-09-17T12:46:05.337Z,38.64
2018-09-17T12:47:05.365Z,38.56
2018-09-17T12:48:05.384Z,38.67
2018-09-17T12:49:05.406Z,37.50
2018-09-17T12:50:05.434Z,37.10
2018-09-17T12:51:05.452Z,38.83
2018-09-17T12:52:05.477Z,38.73
2018-09-17T12:53:05.500Z,38.64
2018-09-17T12:54:05.528Z,38.91